Time;durP1;ratioP1;P1;durP2;ratioP2;P2;SDS_P1;SDS_P2;PMS_P1;PMS_P2;Temp;Humidity;BMP_temperature;BMP_pressure;BME280_temperature;BME280_humidity;BME280_pressure;Samples;Min_cycle;Max_cycle;Signal;HPM_P1;HPM_P2
2024/01/07 00:01:12;;;;;;;15.18;13.57;;;5.70;99.90;;;5.60;76.48;101701.28;5035179;28;20413;-69
2024/01/07 00:03:43;;;;;;;16.13;13.18;;;5.60;99.90;;;5.63;77.09;101708.34;5035577;28;20402;-69
2024/01/07 00:06:12;;;;;;;15.80;14.18;;;5.50;99.90;;;5.64;76.87;101711.00;5035729;28;20497;-70
2024/01/07 00:08:40;;;;;;;17.08;15.07;;;5.50;99.90;;;5.73;76.98;101713.88;5034933;28;20467;-69
2024/01/07 00:11:08;;;;;;;15.43;13.80;;;5.60;99.90;;;5.70;76.75;101716.44;5035145;28;20118;-69
2024/01/07 00:13:37;;;;;;;16.40;13.88;;;5.60;99.90;;;5.72;77.18;101719.09;5035115;28;20053;-69
2024/01/07 00:16:06;;;;;;;15.80;14.10;;;5.60;99.90;;;5.73;77.47;101716.50;5035056;28;20038;-69
2024/01/07 00:18:34;;;;;;;16.63;13.95;;;5.60;99.90;;;5.73;77.04;101727.00;5034719;28;20133;-69
2024/01/07 00:21:05;;;;;;;17.77;14.60;;;5.60;99.90;;;5.72;76.88;101724.34;5017313;28;20080;-69
2024/01/07 00:23:33;;;;;;;19.33;15.35;;;5.70;99.90;;;5.71;77.30;101712.97;5035058;28;20038;-70
2024/01/07 00:26:03;;;;;;;17.45;15.65;;;5.70;99.90;;;5.71;77.32;101719.97;5017217;28;20494;-69
2024/01/07 00:28:31;;;;;;;18.10;15.25;;;5.60;99.90;;;5.81;77.97;101725.50;5017230;28;20041;-69
2024/01/07 00:31:00;;;;;;;17.17;15.37;;;5.70;99.90;;;5.81;77.93;101727.22;5017005;28;20062;-69
2024/01/07 00:33:28;;;;;;;19.52;13.85;;;5.70;99.90;;;5.78;77.57;101738.56;5031818;28;20044;-69
2024/01/07 00:35:57;;;;;;;16.85;14.30;;;5.70;99.90;;;5.73;77.75;101731.41;5034425;28;20418;-70
2024/01/07 00:38:26;;;;;;;18.05;14.90;;;5.70;99.90;;;5.72;77.99;101740.09;5031100;28;20518;-69
2024/01/07 00:40:55;;;;;;;16.92;14.95;;;5.60;99.90;;;5.78;77.44;101733.31;5016857;28;20081;-69
2024/01/07 00:43:24;;;;;;;17.95;15.93;;;5.70;99.90;;;5.78;77.78;101737.66;5034454;28;20058;-69
2024/01/07 00:45:52;;;;;;;16.08;14.38;;;5.70;99.90;;;5.72;77.92;101746.25;5034553;28;20034;-69
2024/01/07 00:48:20;;;;;;;16.90;14.18;;;5.60;99.90;;;5.72;78.40;101733.13;5034189;28;20053;-70
2024/01/07 00:50:49;;;;;;;16.55;14.45;;;5.60;99.90;;;5.68;79.05;101738.22;5034460;28;20049;-69
2024/01/07 00:53:17;;;;;;;17.42;15.00;;;5.60;99.90;;;5.71;78.89;101733.94;5034288;28;20042;-69
2024/01/07 00:55:47;;;;;;;17.00;15.27;;;5.60;99.90;;;5.75;78.55;101730.56;5016710;28;20487;-70
2024/01/07 00:58:16;;;;;;;18.13;15.27;;;5.70;99.90;;;5.76;78.82;101756.00;5034390;28;20075;-69
2024/01/07 01:00:44;;;;;;;16.00;14.32;;;5.60;99.90;;;5.71;78.31;101733.94;5016472;28;20045;-69
2024/01/07 01:03:13;;;;;;;17.38;14.88;;;5.60;99.90;;;5.78;78.50;101740.28;5005094;28;20046;-69
2024/01/07 01:05:41;;;;;;;16.50;14.73;;;5.60;99.90;;;5.77;78.87;101738.53;5030457;28;20193;-69
2024/01/07 01:08:09;;;;;;;19.35;15.13;;;5.70;99.90;;;5.79;78.93;101734.19;5016637;28;20064;-70
2024/01/07 01:10:38;;;;;;;16.83;14.50;;;5.70;99.90;;;5.86;78.69;101734.44;5016278;28;20052;-70
2024/01/07 01:13:08;;;;;;;16.38;14.55;;;5.70;99.90;;;5.77;78.55;101736.75;5034274;28;20145;-71
2024/01/07 01:15:36;;;;;;;16.80;15.00;;;5.70;99.90;;;5.72;78.52;101742.72;5033917;28;20450;-70
2024/01/07 01:18:06;;;;;;;17.60;15.43;;;5.60;99.90;;;5.78;78.79;101746.44;5033942;28;20079;-70
2024/01/07 01:20:35;;;;;;;17.15;15.32;;;5.70;99.90;;;5.68;78.77;101744.38;5016277;28;20104;-69
2024/01/07 01:23:03;;;;;;;18.20;15.23;;;5.60;99.90;;;5.65;79.27;101751.28;5033653;28;20045;-70
2024/01/07 01:25:32;;;;;;;17.55;15.57;;;5.60;99.90;;;5.31;79.33;101702.16;5033731;28;20068;-70
2024/01/07 01:28:00;;;;;;;17.85;15.95;;;5.60;99.90;;;5.59;79.56;101759.88;5015693;28;20053;-69
2024/01/07 01:30:31;;;;;;;16.05;14.43;;;5.50;99.90;;;5.56;79.35;101757.13;5016004;28;20096;-70
2024/01/07 01:33:01;;;;;;;18.33;16.23;;;5.50;99.90;;;5.45;79.39;101769.94;5033861;28;20081;-69
2024/01/07 01:35:30;;;;;;;18.10;16.23;;;5.40;99.90;;;5.43;79.57;101768.09;5029677;28;20509;-69
2024/01/07 01:37:58;;;;;;;19.13;16.00;;;5.40;99.90;;;5.41;79.49;101767.16;5033440;28;20033;-70
2024/01/07 01:40:27;;;;;;;17.98;16.08;;;5.30;99.90;;;5.48;80.13;101782.22;5033337;28;20057;-69
2024/01/07 01:42:55;;;;;;;17.25;14.82;;;5.40;99.90;;;5.44;79.80;101777.75;5033327;28;20054;-70
2024/01/07 01:45:23;;;;;;;16.42;14.73;;;5.40;99.90;;;5.42;80.27;101755.81;5033426;28;20054;-69
2024/01/07 01:47:53;;;;;;;17.58;15.48;;;5.40;99.90;;;5.45;79.67;101777.81;5030247;28;20045;-69
2024/01/07 01:50:23;;;;;;;19.30;16.58;;;5.40;99.90;;;5.41;79.58;101780.28;5033524;28;20494;-70
2024/01/07 01:52:52;;;;;;;17.37;15.57;;;5.30;99.90;;;5.43;79.33;101776.88;5026171;28;20049;-69
2024/01/07 01:55:21;;;;;;;19.80;15.68;;;5.40;99.90;;;5.33;78.79;101787.91;5033341;28;20065;-70
2024/01/07 01:57:50;;;;;;;18.83;16.23;;;5.30;99.90;;;5.31;79.64;101772.97;5012006;28;20053;-70
2024/01/07 02:00:19;;;;;;;19.20;15.70;;;5.30;99.90;;;5.35;79.49;101782.72;5015516;28;20041;-70
2024/01/07 02:02:48;;;;;;;18.50;16.50;;;5.30;99.90;;;5.25;79.33;101773.66;5015332;28;20056;-70
2024/01/07 02:05:18;;;;;;;19.15;16.05;;;5.30;99.90;;;5.30;79.59;101784.31;5033098;28;20071;-70
2024/01/07 02:07:46;;;;;;;18.65;16.23;;;5.30;99.90;;;4.36;79.15;101625.75;5015327;28;20059;-71
2024/01/07 02:10:15;;;;;;;17.88;15.93;;;5.20;99.90;;;5.18;79.65;101778.66;5015182;28;20076;-71
2024/01/07 02:12:43;;;;;;;18.53;16.03;;;5.20;99.90;;;5.15;79.33;101781.22;5032939;28;20449;-71
2024/01/07 02:15:11;;;;;;;19.47;17.37;;;5.10;99.90;;;5.13;79.51;101790.75;5032680;28;20096;-70
2024/01/07 02:17:40;;;;;;;18.87;16.10;;;5.10;99.90;;;5.07;79.91;101798.44;5014871;28;20491;-69
2024/01/07 02:20:10;;;;;;;18.03;16.13;;;5.10;99.90;;;4.99;80.19;101781.56;5014776;28;20498;-69
2024/01/07 02:22:40;;;;;;;19.90;16.55;;;5.10;99.90;;;5.23;80.01;101798.06;5015102;28;20053;-70
2024/01/07 02:25:10;;;;;;;19.60;16.95;;;5.20;99.90;;;5.13;79.92;101811.75;5032935;28;20046;-70
2024/01/07 02:27:39;;;;;;;22.33;17.90;;;5.10;99.90;;;4.95;80.05;101809.41;5032935;28;20053;-69
2024/01/07 02:30:09;;;;;;;21.33;18.07;;;5.10;99.90;;;5.15;80.28;101807.44;5015096;28;20048;-70
2024/01/07 02:32:37;;;;;;;20.35;17.23;;;5.10;99.90;;;5.13;80.42;101806.50;5015101;28;20134;-70
2024/01/07 02:35:07;;;;;;;19.45;16.83;;;5.10;99.90;;;5.14;80.21;101805.63;5032769;28;20132;-70
2024/01/07 02:37:36;;;;;;;21.95;19.17;;;5.10;99.90;;;5.11;80.18;101802.94;5015022;28;20053;-69
2024/01/07 02:40:05;;;;;;;20.65;17.00;;;5.10;99.90;;;5.14;80.52;101801.28;5032604;28;20492;-69
2024/01/07 02:42:35;;;;;;;19.03;17.03;;;5.10;99.90;;;5.08;80.95;101808.97;5014535;28;20079;-70
2024/01/07 02:45:04;;;;;;;21.52;18.55;;;5.10;99.90;;;4.97;80.52;101817.31;5025695;28;20056;-70
2024/01/07 02:47:33;;;;;;;21.45;17.70;;;5.00;99.90;;;5.08;80.89;101810.69;5032555;28;20131;-70
2024/01/07 02:50:01;;;;;;;19.43;17.33;;;5.10;99.90;;;5.09;81.13;101805.47;5028725;28;20155;-70
2024/01/07 02:52:29;;;;;;;20.60;17.47;;;5.00;99.90;;;4.96;80.89;101805.94;5014586;28;20049;-70
2024/01/07 02:54:58;;;;;;;19.00;16.67;;;5.00;99.90;;;4.86;81.01;101806.44;5032169;28;20132;-70
2024/01/07 02:57:26;;;;;;;18.77;16.65;;;4.90;99.90;;;4.87;81.39;101800.38;5032542;28;20045;-70
2024/01/07 02:59:56;;;;;;;18.83;16.53;;;4.90;99.90;;;5.07;81.38;101822.03;5031942;28;20041;-70
2024/01/07 03:02:25;;;;;;;18.85;16.67;;;5.00;99.90;;;5.07;81.04;101815.03;5032067;28;20049;-71
2024/01/07 03:04:53;;;;;;;18.05;16.08;;;5.00;99.90;;;5.05;81.03;101815.84;5014505;28;20498;-69
2024/01/07 03:07:22;;;;;;;18.53;16.07;;;5.00;99.90;;;5.08;81.00;101824.69;5032158;28;20045;-69
2024/01/07 03:09:50;;;;;;;18.87;15.80;;;5.10;99.90;;;5.03;81.21;101817.50;5032278;28;20053;-69
2024/01/07 03:12:19;;;;;;;18.90;16.17;;;5.00;99.90;;;5.11;80.75;101832.63;5031778;28;20045;-70
2024/01/07 03:14:47;;;;;;;18.97;16.90;;;5.10;99.90;;;5.05;80.51;101834.19;5031982;28;20045;-69
2024/01/07 03:17:17;;;;;;;18.60;16.47;;;5.10;99.90;;;4.70;80.72;101813.75;5031789;28;20064;-70
2024/01/07 03:19:45;;;;;;;17.60;15.80;;;5.00;99.90;;;4.89;81.00;101824.91;5032146;28;20095;-70
2024/01/07 03:22:14;;;;;;;17.60;15.63;;;4.90;99.90;;;4.98;81.17;101838.31;5031944;28;20049;-70
2024/01/07 03:24:43;;;;;;;19.73;16.80;;;4.90;99.90;;;5.04;81.18;101845.50;5031744;28;20038;-70
2024/01/07 03:27:11;;;;;;;16.50;14.80;;;5.00;99.90;;;4.94;81.12;101848.63;5029229;28;20038;-70
2024/01/07 03:29:41;;;;;;;18.33;15.90;;;4.90;99.90;;;4.88;81.07;101853.69;5035984;28;20402;-69
2024/01/07 03:32:09;;;;;;;18.67;15.35;;;4.90;99.90;;;4.90;81.08;101847.66;5036091;28;20037;-69
2024/01/07 03:34:40;;;;;;;20.07;16.30;;;4.90;99.90;;;4.87;80.92;101837.06;5035893;28;20174;-69
2024/01/07 03:37:09;;;;;;;17.27;15.17;;;4.90;99.90;;;5.00;81.00;101851.47;5035850;28;20045;-70
2024/01/07 03:39:37;;;;;;;17.67;15.77;;;5.00;99.90;;;4.91;81.31;101845.94;5036394;28;20049;-69
2024/01/07 03:42:11;;;;;;;18.70;16.60;;;5.00;99.90;;;4.99;81.46;101855.84;5035712;28;20045;-69
2024/01/07 03:44:40;;;;;;;18.27;15.80;;;5.00;99.90;;;4.92;81.45;101863.41;5018363;28;20483;-69
2024/01/07 03:47:08;;;;;;;17.42;15.48;;;4.90;99.90;;;4.96;81.27;101847.88;5035548;28;20117;-69
2024/01/07 03:49:39;;;;;;;17.45;15.60;;;4.90;99.90;;;4.91;81.34;101869.53;5035722;28;20046;-72
2024/01/07 03:52:08;;;;;;;18.87;16.70;;;4.90;99.90;;;4.93;81.28;101876.59;5035536;28;20045;-71
2024/01/07 03:54:37;;;;;;;17.20;15.40;;;4.90;99.90;;;4.88;81.32;101866.81;5035485;28;20099;-70
2024/01/07 03:57:06;;;;;;;18.73;16.37;;;4.90;99.90;;;4.79;80.93;101877.84;5035929;28;20111;-70
2024/01/07 03:59:34;;;;;;;18.07;16.07;;;4.80;99.90;;;4.86;81.37;101876.34;5017717;28;20085;-70
2024/01/07 04:02:02;;;;;;;19.47;16.80;;;4.80;99.90;;;4.81;81.41;101878.81;5035273;28;20045;-70
2024/01/07 04:04:31;;;;;;;19.70;17.60;;;4.80;99.90;;;4.75;81.56;101889.06;5035153;28;20648;-69
2024/01/07 04:07:00;;;;;;;19.47;16.77;;;4.80;99.90;;;4.78;81.63;101883.03;5035181;28;20045;-70
2024/01/07 04:09:29;;;;;;;20.45;17.75;;;4.80;99.90;;;4.86;81.60;101886.84;5017576;28;20046;-70
2024/01/07 04:11:57;;;;;;;19.27;16.77;;;4.80;99.90;;;4.90;82.37;101893.94;5034978;28;20475;-69
2024/01/07 04:14:27;;;;;;;19.23;16.80;;;4.80;99.90;;;4.85;82.26;101885.03;5035220;28;20119;-70
2024/01/07 04:16:56;;;;;;;20.27;18.05;;;4.90;99.90;;;4.81;82.33;101906.72;5034752;28;20045;-69
2024/01/07 04:19:24;;;;;;;21.13;18.50;;;4.90;99.90;;;4.86;82.60;101892.06;5014341;28;20062;-70
2024/01/07 04:21:52;;;;;;;20.77;18.57;;;4.90;99.90;;;4.80;82.77;101903.22;5035033;28;20046;-69
2024/01/07 04:24:22;;;;;;;23.43;20.63;;;4.80;99.90;;;4.74;82.50;101903.03;5031370;28;20070;-71
2024/01/07 04:26:51;;;;;;;23.63;19.08;;;4.70;99.90;;;4.68;82.86;101904.50;5035030;28;20122;-70
2024/01/07 04:29:20;;;;;;;23.20;19.33;;;4.70;99.90;;;4.77;83.62;101904.84;5017327;28;20075;-69
2024/01/07 04:31:48;;;;;;;23.47;19.23;;;4.70;99.90;;;4.76;82.93;101909.22;5034852;28;20092;-70
2024/01/07 04:34:17;;;;;;;24.17;20.20;;;4.70;99.90;;;4.78;83.02;101909.25;5034713;28;20049;-70
2024/01/07 04:36:47;;;;;;;25.13;20.13;;;4.70;99.90;;;4.54;83.38;101920.63;5034777;28;20050;-70
2024/01/07 04:39:16;;;;;;;24.17;19.80;;;4.60;99.90;;;4.47;83.80;101881.06;5034647;28;20064;-70
2024/01/07 04:41:46;;;;;;;25.63;21.17;;;4.60;99.90;;;4.51;83.20;101896.94;5034791;28;20572;-69
2024/01/07 04:44:14;;;;;;;28.50;21.60;;;4.60;99.90;;;4.66;83.57;101924.53;5034475;28;20084;-69
2024/01/07 04:46:42;;;;;;;26.93;21.27;;;4.60;99.90;;;4.68;83.52;101928.09;5016917;28;20402;-70
2024/01/07 04:49:11;;;;;;;23.13;19.70;;;4.60;99.90;;;4.69;83.62;101928.16;5034632;28;20505;-70
2024/01/07 04:51:39;;;;;;;25.97;21.20;;;4.60;99.90;;;4.75;83.70;101933.59;5034419;28;20115;-69
2024/01/07 04:54:08;;;;;;;27.23;20.90;;;4.70;99.90;;;4.78;83.53;101940.69;5016963;28;20084;-70
2024/01/07 04:56:36;;;;;;;26.63;20.93;;;4.70;99.90;;;4.72;83.15;101935.22;5027195;28;20502;-69
2024/01/07 04:59:06;;;;;;;26.33;22.20;;;4.70;99.90;;;4.75;83.56;101938.84;5033353;28;20396;-70
2024/01/07 05:01:35;;;;;;;27.42;22.35;;;4.70;99.90;;;4.82;83.19;101947.84;5030708;28;20119;-70
2024/01/07 05:04:04;;;;;;;26.23;21.67;;;4.80;99.90;;;4.80;83.23;101939.03;5034439;28;20081;-70
2024/01/07 05:06:32;;;;;;;23.97;20.23;;;4.80;99.90;;;4.77;83.11;101946.75;5034267;28;20034;-70
2024/01/07 05:09:01;;;;;;;26.40;21.00;;;4.70;99.90;;;4.74;83.57;101949.28;5016433;28;20410;-69
2024/01/07 05:11:29;;;;;;;27.57;21.13;;;4.70;99.90;;;4.53;83.60;101942.41;5034260;28;20498;-70
2024/01/07 05:13:58;;;;;;;25.93;20.93;;;4.50;99.90;;;4.56;83.97;101947.78;5016391;28;20115;-70
2024/01/07 05:16:28;;;;;;;24.53;20.33;;;4.50;99.90;;;4.67;83.70;101948.16;5030076;28;20054;-69
2024/01/07 05:18:56;;;;;;;24.55;21.13;;;4.60;99.90;;;4.62;83.53;101946.22;5034088;28;20483;-71
2024/01/07 05:21:24;;;;;;;23.23;19.63;;;4.60;99.90;;;4.57;83.33;101953.88;5033854;28;20107;-70
2024/01/07 05:23:53;;;;;;;23.43;20.00;;;4.50;99.90;;;4.40;83.25;101955.91;5033947;28;20049;-70
2024/01/07 05:26:21;;;;;;;25.60;20.53;;;4.50;99.90;;;4.36;83.79;101959.22;5033818;28;20045;-69
2024/01/07 05:28:50;;;;;;;22.77;19.23;;;4.40;99.90;;;4.52;83.52;101955.47;5026828;28;20046;-69
2024/01/07 05:31:19;;;;;;;21.93;19.50;;;4.50;99.90;;;4.35;83.13;101969.66;5033550;28;20046;-70
2024/01/07 05:33:48;;;;;;;22.37;18.17;;;4.30;99.90;;;4.37;82.86;101968.88;5030044;28;20045;-70
2024/01/07 05:36:17;;;;;;;23.02;19.65;;;4.30;99.90;;;3.64;82.40;101838.63;5015646;28;20046;-70
2024/01/07 05:38:45;;;;;;;21.40;18.13;;;4.40;99.90;;;4.42;82.25;101977.81;5029705;28;20111;-70
2024/01/07 05:41:14;;;;;;;22.33;17.87;;;4.40;99.90;;;4.49;82.35;101985.03;5015709;28;20127;-69
2024/01/07 05:43:42;;;;;;;20.93;18.27;;;4.50;99.90;;;4.51;82.45;101978.13;5033342;28;20430;-70
2024/01/07 05:46:11;;;;;;;23.00;18.83;;;4.50;99.90;;;4.51;82.29;101990.34;5033477;28;20049;-70
2024/01/07 05:48:44;;;;;;;21.00;18.50;;;4.50;99.90;;;4.25;82.50;102002.44;5015351;28;20136;-70
2024/01/07 05:51:15;;;;;;;20.83;16.57;;;4.30;99.90;;;4.23;82.07;101995.38;5032637;28;20034;-70
2024/01/07 05:53:45;;;;;;;22.30;18.37;;;4.30;99.90;;;4.20;82.19;101995.25;5025798;28;20049;-70
2024/01/07 05:56:14;;;;;;;24.37;18.93;;;4.20;99.90;;;3.75;83.34;102001.25;5015443;28;20434;-70
2024/01/07 05:58:42;;;;;;;24.17;20.47;;;3.80;99.90;;;3.92;83.49;101993.25;5033208;28;20332;-70
2024/01/07 06:01:11;;;;;;;24.67;20.60;;;3.90;99.90;;;3.72;84.60;101999.41;5032884;28;20060;-69
2024/01/07 06:03:39;;;;;;;24.30;19.87;;;3.80;99.90;;;3.89;84.56;102013.19;5033353;28;20049;-70
2024/01/07 06:06:08;;;;;;;27.10;20.27;;;3.80;99.90;;;3.83;84.26;102013.84;5033072;28;20056;-70
2024/01/07 06:08:37;;;;;;;26.60;20.87;;;3.80;99.90;;;3.80;84.68;102016.31;5032973;28;20053;-69
2024/01/07 06:11:06;;;;;;;27.25;20.60;;;3.80;99.90;;;3.88;84.73;102017.53;5032947;28;20050;-69
2024/01/07 06:13:35;;;;;;;27.80;22.20;;;3.80;99.90;;;3.81;84.65;102018.13;5032996;28;20046;-70
2024/01/07 06:16:05;;;;;;;28.10;21.77;;;3.80;99.90;;;3.88;85.05;102022.75;5032915;28;20119;-71
2024/01/07 06:18:33;;;;;;;26.20;20.70;;;3.90;99.90;;;3.96;84.92;102023.97;5032858;28;20045;-70
2024/01/07 06:21:06;;;;;;;27.57;21.67;;;4.00;99.90;;;4.04;85.05;102035.63;5033249;28;20124;-70
2024/01/07 06:23:35;;;;;;;28.63;22.27;;;4.00;99.90;;;4.07;85.00;102042.69;5033318;28;20049;-70
2024/01/07 06:26:06;;;;;;;29.17;21.97;;;4.10;99.90;;;4.12;84.83;102039.44;5032869;28;20049;-69
2024/01/07 06:28:34;;;;;;;29.73;23.03;;;4.10;99.90;;;4.24;84.57;102047.78;5032849;28;20054;-70
2024/01/07 06:31:04;;;;;;;28.50;23.03;;;4.20;99.90;;;4.18;84.82;102055.38;5032760;28;20053;-69
2024/01/07 06:33:33;;;;;;;27.23;22.67;;;4.20;99.90;;;4.17;84.99;102056.25;5032731;28;20056;-69
2024/01/07 06:36:02;;;;;;;29.63;23.10;;;4.20;99.90;;;4.08;84.83;102053.25;5032677;28;20052;-71
2024/01/07 06:38:31;;;;;;;29.47;22.60;;;4.10;99.90;;;4.09;85.04;102060.25;5032626;28;20494;-70
2024/01/07 06:41:01;;;;;;;29.00;23.10;;;4.10;99.90;;;4.09;85.33;102064.59;5032352;28;20042;-70
2024/01/07 06:43:32;;;;;;;30.08;23.92;;;4.10;99.90;;;4.18;85.21;102076.34;5032710;28;20049;-69
2024/01/07 06:46:00;;;;;;;;;;;4.20;99.90;;;4.18;84.94;102073.72;5032871;28;20091;-72
2024/01/07 06:48:28;;;;;;;30.87;23.70;;;4.20;99.90;;;4.08;84.96;102071.59;5032712;28;19921;-70
2024/01/07 06:50:58;;;;;;;33.20;24.23;;;4.20;99.90;;;4.19;85.41;102083.38;5029449;28;20470;-70
2024/01/07 06:53:26;;;;;;;33.00;24.87;;;4.20;99.90;;;3.09;84.84;101893.03;5032103;28;20119;-70
2024/01/07 06:55:54;;;;;;;30.60;23.97;;;4.20;99.90;;;4.16;85.10;102072.75;5028674;28;20122;-73
2024/01/07 06:58:23;;;;;;;31.03;24.53;;;4.20;99.90;;;4.17;84.76;102092.88;5031950;28;20072;-74
2024/01/07 07:00:52;;;;;;;31.67;23.80;;;4.20;99.90;;;4.17;85.17;102089.38;5014669;28;20053;-75
2024/01/07 07:03:21;;;;;;;33.63;24.33;;;4.10;99.90;;;4.09;85.11;102096.00;5015042;28;20148;-71
2024/01/07 07:05:49;;;;;;;30.43;24.10;;;4.10;99.90;;;4.15;85.26;102088.41;5031685;28;20379;-72
2024/01/07 07:08:18;;;;;;;31.47;23.27;;;4.20;99.90;;;4.21;85.13;102100.03;5032104;28;20120;-73
2024/01/07 07:10:47;;;;;;;30.83;23.23;;;4.20;99.90;;;4.18;84.80;102110.38;5014395;28;20136;-71
2024/01/07 07:13:15;;;;;;;31.77;23.80;;;4.20;99.90;;;4.13;84.73;102113.63;5031962;28;20502;-72
2024/01/07 07:15:44;;;;;;;30.20;23.60;;;4.10;99.90;;;4.18;84.97;102119.97;5014330;28;20042;-70
2024/01/07 07:18:14;;;;;;;32.67;25.13;;;4.10;99.90;;;4.12;84.95;102122.34;5014020;28;20414;-71
2024/01/07 07:20:43;;;;;;;31.85;23.98;;;4.10;99.90;;;3.92;84.70;102124.13;5031766;28;20072;-70
2024/01/07 07:23:15;;;;;;;28.50;23.17;;;4.00;99.90;;;4.01;85.40;102126.22;5032009;28;20046;-69
2024/01/07 07:25:43;;;;;;;30.47;23.33;;;4.00;99.90;;;3.97;84.86;102122.56;5031783;28;20072;-70
2024/01/07 07:28:12;;;;;;;30.70;24.47;;;4.00;99.90;;;4.01;84.83;102115.72;5031644;28;20041;-70
2024/01/07 07:30:40;;;;;;;33.00;23.67;;;4.00;99.90;;;3.92;84.80;102118.88;5032327;28;20386;-70
2024/01/07 07:33:09;;;;;;;27.83;22.93;;;4.00;99.90;;;4.07;84.98;102136.94;5007119;28;20046;-71
2024/01/07 07:35:40;;;;;;;29.17;23.00;;;4.00;99.90;;;4.11;84.84;102142.38;5010627;28;20080;-71
2024/01/07 07:38:09;;;;;;;29.57;23.20;;;4.10;99.90;;;4.12;84.83;102144.16;5028618;28;20041;-71
2024/01/07 07:40:37;;;;;;;29.97;23.10;;;4.20;99.90;;;4.00;85.04;102122.72;5031248;28;20041;-72
2024/01/07 07:43:06;;;;;;;29.73;22.97;;;4.20;99.90;;;4.03;85.12;102159.47;5027870;28;20045;-71
2024/01/07 07:45:35;;;;;;;28.70;22.87;;;4.10;99.90;;;4.01;85.34;102140.19;5031091;28;20177;-72
2024/01/07 07:48:05;;;;;;;27.90;22.13;;;4.20;99.90;;;4.16;84.78;102167.00;5031478;28;20056;-71
2024/01/07 07:50:33;;;;;;;31.52;22.20;;;4.10;99.90;;;4.11;84.54;102165.03;5031374;28;20438;-72
2024/01/07 07:53:03;;;;;;;28.63;23.37;;;4.10;99.90;;;4.05;85.13;102167.38;5031254;28;20383;-73
2024/01/07 07:55:32;;;;;;;26.58;21.83;;;4.10;99.90;;;4.06;84.87;102161.34;5032033;28;20056;-72
2024/01/07 07:58:00;;;;;;;26.90;22.27;;;4.10;99.90;;;3.99;84.84;102172.41;5031371;28;20057;-73
2024/01/07 08:00:29;;;;;;;24.43;21.10;;;4.00;99.90;;;4.13;84.55;102164.28;5031361;28;20145;-72
2024/01/07 08:02:57;;;;;;;25.00;20.63;;;4.10;99.90;;;4.06;84.62;102177.94;5031639;28;20099;-72
2024/01/07 08:05:26;;;;;;;24.93;20.97;;;4.10;99.90;;;3.92;84.03;102175.56;5031648;28;20045;-73
2024/01/07 08:07:56;;;;;;;23.47;18.93;;;3.90;99.90;;;3.87;83.92;102166.63;5010852;28;20148;-71
2024/01/07 08:10:25;;;;;;;24.63;19.77;;;3.90;99.90;;;3.88;83.47;102185.00;5031257;28;20069;-72
2024/01/07 08:12:54;;;;;;;23.90;20.25;;;3.90;99.90;;;3.82;83.38;102184.72;5031561;28;20095;-73
2024/01/07 08:15:22;;;;;;;22.07;18.97;;;3.90;99.90;;;3.71;83.34;102148.47;5035100;28;20042;-68
2024/01/07 08:17:51;;;;;;;22.87;18.80;;;3.90;99.90;;;3.90;82.74;102183.34;5034852;28;20096;-73
2024/01/07 08:20:20;;;;;;;23.97;18.77;;;3.90;99.90;;;3.86;82.55;102191.88;5027802;28;20107;-73
2024/01/07 08:22:48;;;;;;;23.33;19.03;;;3.90;99.90;;;3.80;82.39;102201.19;5034823;28;20068;-73
2024/01/07 08:25:17;;;;;;;23.90;20.33;;;3.90;99.90;;;3.86;82.61;102207.59;5034685;28;20045;-73
2024/01/07 08:27:48;;;;;;;23.33;19.03;;;3.90;99.90;;;3.94;82.62;102216.69;5034815;28;20038;-73
2024/01/07 08:30:20;;;;;;;23.27;18.93;;;3.90;99.90;;;3.88;82.33;102218.13;5031603;28;20042;-75
2024/01/07 08:32:48;;;;;;;24.03;18.67;;;3.90;99.90;;;3.69;83.21;102219.03;5009374;28;20450;-75
2024/01/07 08:35:17;;;;;;;22.27;18.23;;;3.70;99.90;;;3.78;82.88;102229.00;5030983;28;20081;-75
2024/01/07 08:37:48;;;;;;;27.03;19.07;;;3.80;99.90;;;3.64;82.81;102229.28;5034235;28;20053;-76
2024/01/07 08:40:18;;;;;;;23.13;18.87;;;3.70;99.90;;;3.71;82.86;102234.78;5030856;28;20048;-75
2024/01/07 08:42:48;;;;;;;30.03;19.57;;;3.70;99.90;;;3.66;82.51;102221.50;5034238;28;20045;-74
2024/01/07 08:45:18;;;;;;;23.35;18.77;;;3.70;99.90;;;3.70;82.71;102230.41;5027619;28;20505;-81
2024/01/07 08:47:47;;;;;;;24.60;17.95;;;3.70;99.90;;;3.66;82.44;102234.56;5034045;28;20052;-84
2024/01/07 08:50:15;;;;;;;24.53;19.50;;;3.70;99.90;;;3.58;82.98;102243.81;5029243;28;20037;-69
2024/01/07 08:52:44;;;;;;;23.50;18.17;;;3.60;99.90;;;3.68;82.68;102241.69;5016538;28;20063;-69
2024/01/07 08:55:12;;;;;;;23.00;18.77;;;3.70;99.90;;;3.51;83.00;102246.97;5034176;28;20041;-70
2024/01/07 08:57:41;;;;;;;23.73;18.17;;;3.60;99.90;;;3.59;83.35;102254.34;5034109;28;20461;-71
2024/01/07 09:00:13;;;;;;;21.93;18.10;;;3.60;99.90;;;3.69;83.09;102258.28;5033925;28;20072;-73
2024/01/07 09:02:41;;;;;;;23.20;18.77;;;3.60;99.90;;;3.81;82.88;102244.84;5016371;28;20045;-73
2024/01/07 09:05:12;;;;;;;21.35;18.17;;;3.80;99.90;;;3.90;83.02;102248.78;5034238;28;20056;-74
2024/01/07 09:07:41;;;;;;;22.67;18.40;;;3.80;99.90;;;3.93;82.76;102256.75;5034038;28;20080;-74
2024/01/07 09:10:11;;;;;;;22.20;18.00;;;3.90;99.90;;;3.86;82.22;102251.16;5016617;28;20515;-70
2024/01/07 09:12:40;;;;;;;23.47;17.80;;;3.90;99.90;;;3.77;82.25;102254.28;5034088;28;20053;-70
2024/01/07 09:15:11;;;;;;;24.50;18.20;;;3.80;99.90;;;3.64;82.67;102236.22;5033784;28;20060;-70
2024/01/07 09:17:39;;;;;;;22.47;18.30;;;3.70;99.90;;;3.67;82.32;102247.75;5032701;28;20050;-75
2024/01/07 09:20:10;;;;;;;22.03;18.13;;;3.80;99.90;;;3.70;82.51;102254.81;5033824;28;20417;-73
2024/01/07 09:22:40;;;;;;;23.13;18.73;;;3.80;99.90;;;3.75;82.97;102273.34;5033753;28;20076;-76
2024/01/07 09:25:09;;;;;;;20.70;17.57;;;3.70;99.90;;;3.75;82.75;102276.88;5029477;28;20041;-77
2024/01/07 09:27:39;;;;;;;22.70;18.33;;;3.70;99.90;;;3.79;82.27;102277.91;5034061;28;20045;-73
2024/01/07 09:30:10;;;;;;;21.47;18.97;;;3.80;99.90;;;3.78;81.78;102279.63;5033580;28;20049;-74
2024/01/07 09:32:40;;;;;;;18.93;16.77;;;3.80;99.90;;;3.68;81.72;102287.88;5033828;28;20054;-75
2024/01/07 09:35:09;;;;;;;24.10;18.48;;;3.80;99.90;;;3.74;81.54;102274.16;5033355;28;20049;-75
2024/01/07 09:37:37;;;;;;;20.70;18.13;;;3.80;99.90;;;3.61;81.45;102297.19;5015808;28;20053;-74
2024/01/07 09:40:08;;;;;;;21.50;17.73;;;3.70;99.90;;;3.55;81.31;102295.97;5033884;28;20123;-72
2024/01/07 09:42:36;;;;;;;19.95;16.17;;;3.60;99.90;;;3.45;80.99;102310.34;5033454;28;20045;-79
2024/01/07 09:45:06;;;;;;;20.80;17.17;;;3.50;99.90;;;3.44;81.35;102286.75;5015833;28;20056;-71
2024/01/07 09:47:36;;;;;;;21.08;17.30;;;3.60;99.90;;;3.47;81.51;102316.56;5033973;28;20061;-72
2024/01/07 09:50:06;;;;;;;19.90;17.10;;;3.50;99.90;;;3.45;81.27;102302.50;5033744;28;20037;-73
2024/01/07 09:52:35;;;;;;;18.57;16.57;;;3.40;99.90;;;3.40;81.14;102310.97;5015861;28;20407;-76
2024/01/07 09:55:05;;;;;;;19.40;17.10;;;3.40;99.90;;;3.53;81.05;102329.00;5033330;28;20403;-77
2024/01/07 09:57:34;;;;;;;20.10;17.00;;;3.50;99.90;;;3.54;81.23;102329.06;5015595;28;20490;-72
2024/01/07 10:00:04;;;;;;;19.73;17.17;;;3.50;99.90;;;3.46;80.72;102334.78;5032613;28;20479;-73
2024/01/07 10:02:41;;;;;;;22.90;17.47;;;3.50;99.90;;;3.21;80.73;102298.75;5032883;28;20057;-71
2024/01/07 10:05:11;;;;;;;21.08;16.85;;;3.50;99.90;;;3.43;80.44;102332.91;5029700;28;20136;-70
2024/01/07 10:07:39;;;;;;;21.38;17.42;;;3.40;99.90;;;3.34;80.05;102332.50;5033322;28;20045;-78
2024/01/07 10:10:16;;;;;;;21.13;16.80;;;3.40;99.90;;;3.26;80.56;102374.75;5032793;28;20450;-72
2024/01/07 10:12:46;;;;;;;24.83;17.07;;;3.30;99.90;;;3.31;80.47;102341.91;5014985;28;20049;-72
2024/01/07 10:15:16;;;;;;;21.33;16.40;;;3.30;99.90;;;3.33;80.17;102333.28;5015242;28;20064;-72
2024/01/07 10:17:48;;;;;;;21.03;16.77;;;3.40;99.90;;;3.31;80.28;102328.84;5032378;28;20065;-73
2024/01/07 10:20:19;;;;;;;22.40;18.10;;;3.30;99.90;;;3.28;79.82;102341.75;5032596;28;20033;-76